Mansfield, Louisiana
Current Conditions -  °F | °C
As of 2:56 AM on Saturday 22 Nov 2014 (Local Time) from KSHV Reporting Station
Overcast Overcast  
Wind Chill: 57°   Ceiling: 3500
Heat Index: 57°   Visibility: 10mi
Dew Point: 53°   Wind: 12mph
Humidity: 87%   Direction: 140°SE
Pressure: 30.17"   Gusts: NA
Location:  32.04°N, 93.71°W
Report Text: KSHV 220856Z 14010KT 10SM OVC035 14/12 A3017 RMK AO2 SLP216 60002 T01390117 58012
Loading
Personal Weather Stations






























Interactive Weather Map New forecast layout! Learn more

10-Day Weather Forecast

Advertisements
Track Severe Weather on mobile